aviador You're here:

LFMD Decoded Metar

CANNES in FRANCE
Report Time2018-01-17 05:00:00
UTC Time2018-01-17 05:14:34
Flight Rules vfr VFR
Wind280° at 13 kt
W.Decomp.*RWY 22: 6.5 kt HW 11.3 kt RCW
RWY 35: 4.4 kt HW 12.2 kt LCW
W.Rank280° ranks 25
Current wind is above 280° avg. (11.0)
Visibility9999 m
Phenomena:N/A
Clouds:Few 034 Hf
Expected CloudBase > 4,400 ft AGL from Temp-Dew spread
CeilingNone
Temp14°C (ISA -1)
Dew Point03°C (48% RH)
AAT7.8°C
QNH1003 hPa
Density Alt364 ft
Elevation30 ft
Report Wrong Elevation
Raw Report
LFMD 170500Z AUTO 28013KT 220V320 9999 FEW034 14/03 Q1003 BECMG
26020G35KT=

Extra information for LFMD:More info

Metar Taf Metar & Taf Last 4 Metars F.Rules Stats Wind Profile Meteogram Temp Stats Airport Information Weather charts Add Link Nearby VenuesMetar ALERT Operation Metar Decoded Social comments